Terminal Aerodrome Forecast
Issued by NWS Cleveland, OH

Home | Current Version | Previous Version | Text Only | Print | Product List | Glossary Off
Versions: 1 2 3 4 5 6 7 8 9 10 11 12 13 14 15 16 17 18 19 20

271
FTUS41 KCLE 211139
TAFMFD
TAF
KMFD 211139Z 2112/2212 05004KT P6SM SCT050 BKN120
      TEMPO 2112/2113 5SM BR BKN050
     FM212100 12006KT P6SM BKN060
     FM220400 16007KT 6SM -SHRA VCTS OVC045CB
     FM220900 20008KT P6SM OVC030=

USA.gov is the U.S. government's official web portal to all federal, state and local government web resources and services.